createdAt,value
2022-10-02T00:00:01.958Z,12.50
2022-10-02T00:02:42.580Z,12.50
2022-10-02T00:05:17.672Z,12.50
2022-10-02T00:07:53.216Z,12.40
2022-10-02T00:10:44.776Z,12.50
2022-10-02T00:13:33.656Z,12.50
2022-10-02T00:16:01.928Z,12.50
2022-10-02T00:18:30.490Z,12.50
2022-10-02T00:21:10.819Z,12.50
2022-10-02T00:23:45.607Z,12.50
2022-10-02T00:26:19.972Z,12.60
2022-10-02T00:29:02.578Z,12.50
2022-10-02T00:31:48.259Z,12.50
2022-10-02T00:34:37.100Z,12.60
2022-10-02T00:37:22.585Z,12.60
2022-10-02T00:40:08.148Z,12.70
2022-10-02T00:42:59.776Z,12.70
2022-10-02T00:45:49.004Z,12.80
2022-10-02T00:48:36.811Z,12.80
2022-10-02T00:51:07.557Z,12.90
2022-10-02T00:53:57.086Z,12.90
2022-10-02T00:56:39.641Z,12.90
2022-10-02T00:59:19.120Z,12.90
2022-10-02T01:01:54.926Z,12.90
2022-10-02T01:04:39.841Z,12.90
2022-10-02T01:07:09.048Z,12.80
2022-10-02T01:09:35.911Z,12.80
2022-10-02T01:12:02.783Z,12.70
2022-10-02T01:14:37.575Z,12.70
2022-10-02T01:17:18.584Z,12.60
2022-10-02T01:19:45.459Z,12.60
2022-10-02T01:22:30.559Z,12.60
2022-10-02T01:24:57.967Z,12.50
2022-10-02T01:27:25.355Z,12.40
2022-10-02T01:30:00.307Z,12.40
2022-10-02T01:32:28.612Z,12.40
2022-10-02T01:34:55.865Z,12.30
2022-10-02T01:37:24.629Z,12.20
2022-10-02T01:39:51.496Z,12.20
2022-10-02T01:42:18.468Z,12.20
2022-10-02T01:44:45.513Z,12.10
2022-10-02T01:47:14.564Z,12.10
2022-10-02T01:50:09.399Z,12.10
2022-10-02T01:52:42.727Z,12.00
2022-10-02T01:55:21.394Z,11.90
2022-10-02T01:58:04.166Z,11.90
2022-10-02T02:00:43.674Z,11.90
2022-10-02T02:03:19.211Z,11.90
2022-10-02T02:05:48.894Z,11.80
2022-10-02T02:08:30.455Z,11.80
2022-10-02T02:11:16.387Z,11.80
2022-10-02T02:13:56.043Z,11.80
2022-10-02T02:16:28.392Z,11.80
2022-10-02T02:19:16.261Z,11.80
2022-10-02T02:21:56.296Z,11.80
2022-10-02T02:24:26.263Z,11.80
2022-10-02T02:26:54.230Z,11.80
2022-10-02T02:29:21.749Z,11.80
2022-10-02T02:31:52.848Z,11.80
2022-10-02T02:34:23.438Z,11.80
2022-10-02T02:36:54.637Z,11.80
2022-10-02T02:39:27.052Z,11.70
2022-10-02T02:41:56.264Z,11.80
2022-10-02T02:44:33.539Z,11.70
2022-10-02T02:47:17.773Z,11.80
2022-10-02T02:49:50.429Z,11.70
2022-10-02T02:52:22.791Z,11.70
2022-10-02T02:54:54.171Z,11.70
2022-10-02T02:57:25.560Z,11.70
2022-10-02T02:59:52.435Z,11.70
2022-10-02T03:02:19.348Z,11.60
2022-10-02T03:04:46.267Z,11.60
2022-10-02T03:07:14.963Z,11.60
2022-10-02T03:09:42.579Z,11.60
2022-10-02T03:12:17.899Z,11.60
2022-10-02T03:15:02.964Z,11.60
2022-10-02T03:17:50.156Z,11.60
2022-10-02T03:20:19.899Z,11.60
2022-10-02T03:23:00.117Z,11.60
2022-10-02T03:25:34.048Z,11.60
2022-10-02T03:28:50.560Z,11.60
2022-10-02T03:31:12.396Z,11.50
2022-10-02T03:33:39.301Z,11.50
2022-10-02T03:36:06.255Z,11.60
2022-10-02T03:38:33.404Z,11.50
2022-10-02T03:41:00.317Z,11.50
2022-10-02T03:43:28.717Z,11.50
2022-10-02T03:45:56.496Z,11.50
2022-10-02T03:48:23.397Z,11.50
2022-10-02T03:50:51.070Z,11.50
2022-10-02T03:53:20.465Z,11.50
2022-10-02T03:55:58.347Z,11.50
2022-10-02T03:58:25.224Z,11.50
2022-10-02T04:01:10.380Z,11.40
2022-10-02T04:03:39.175Z,11.50
2022-10-02T04:06:06.576Z,11.50
2022-10-02T04:08:36.395Z,11.50
2022-10-02T04:11:23.900Z,11.50
2022-10-02T04:13:55.807Z,11.50
2022-10-02T04:16:36.044Z,11.50
2022-10-02T04:19:16.672Z,11.50
2022-10-02T04:21:43.460Z,11.50
2022-10-02T04:24:22.128Z,11.50
2022-10-02T04:27:12.351Z,11.60
2022-10-02T04:29:49.420Z,11.50
2022-10-02T04:32:18.145Z,11.60
2022-10-02T04:34:45.020Z,11.60
2022-10-02T04:37:24.048Z,11.60
2022-10-02T04:40:13.805Z,11.60
2022-10-02T04:42:51.676Z,11.60
2022-10-02T04:46:00.437Z,11.60
2022-10-02T04:48:46.040Z,11.60
2022-10-02T04:51:34.777Z,11.60
2022-10-02T04:54:07.421Z,11.70
2022-10-02T04:56:54.701Z,11.70
2022-10-02T04:59:52.196Z,11.70
2022-10-02T05:02:34.464Z,11.80
2022-10-02T05:05:11.273Z,11.70
2022-10-02T05:07:41.464Z,11.60
2022-10-02T05:10:46.145Z,11.60
2022-10-02T05:13:12.868Z,11.70
2022-10-02T05:16:15.172Z,11.60
2022-10-02T05:19:00.325Z,11.50
2022-10-02T05:21:36.163Z,11.60
2022-10-02T05:24:23.251Z,11.60
2022-10-02T05:27:11.751Z,11.60
2022-10-02T05:29:56.648Z,11.60
2022-10-02T05:32:40.219Z,11.60
2022-10-02T05:35:42.993Z,11.60
2022-10-02T05:38:19.033Z,11.70
2022-10-02T05:41:14.614Z,11.60
2022-10-02T05:44:12.375Z,11.70
2022-10-02T05:46:50.352Z,11.70
2022-10-02T05:49:38.429Z,11.70
2022-10-02T05:52:26.235Z,11.60
2022-10-02T05:54:55.875Z,11.60
2022-10-02T05:57:26.457Z,11.60
2022-10-02T06:00:28.718Z,11.60
2022-10-02T06:03:23.378Z,11.70
2022-10-02T06:06:01.235Z,11.70
2022-10-02T06:08:32.804Z,11.70
2022-10-02T06:11:04.139Z,11.80
2022-10-02T06:13:36.167Z,11.80
2022-10-02T06:16:29.348Z,11.80
2022-10-02T06:18:59.498Z,11.80
2022-10-02T06:21:29.060Z,11.80
2022-10-02T06:23:58.059Z,11.80
2022-10-02T06:26:46.985Z,11.90
2022-10-02T06:29:39.524Z,11.90
2022-10-02T06:32:11.090Z,12.00
2022-10-02T06:34:37.974Z,12.00
2022-10-02T06:37:52.654Z,12.00
2022-10-02T06:40:19.419Z,12.00
2022-10-02T06:43:09.625Z,12.00
2022-10-02T06:45:46.223Z,11.90
2022-10-02T06:48:49.012Z,12.00
2022-10-02T06:51:21.309Z,12.00
2022-10-02T06:53:57.086Z,12.00
2022-10-02T06:56:39.092Z,12.00
2022-10-02T06:59:21.261Z,12.00
2022-10-02T07:01:59.383Z,12.00
2022-10-02T07:04:56.608Z,12.10
2022-10-02T07:07:38.970Z,12.10
2022-10-02T07:10:14.685Z,12.10
2022-10-02T07:13:09.488Z,12.10
2022-10-02T07:15:49.072Z,12.20
2022-10-02T07:18:45.196Z,12.20
2022-10-02T07:21:32.933Z,12.30
2022-10-02T07:24:17.853Z,12.40
2022-10-02T07:26:54.066Z,12.50
2022-10-02T07:29:51.309Z,12.50
2022-10-02T07:32:48.908Z,12.50
2022-10-02T07:36:01.644Z,12.60
2022-10-02T07:38:56.118Z,12.60
2022-10-02T07:41:34.664Z,12.70
2022-10-02T07:44:07.305Z,12.70
2022-10-02T07:47:00.360Z,12.80
2022-10-02T07:49:39.058Z,12.90
2022-10-02T07:52:38.086Z,12.90
2022-10-02T07:55:19.368Z,13.10
2022-10-02T07:57:52.444Z,13.20
2022-10-02T08:00:20.951Z,13.40
2022-10-02T08:03:10.266Z,13.60
2022-10-02T08:05:48.045Z,13.70
2022-10-02T08:08:21.446Z,13.70
2022-10-02T08:10:54.000Z,13.70
2022-10-02T08:13:31.744Z,13.70
2022-10-02T08:15:59.143Z,13.80
2022-10-02T08:18:44.659Z,13.70
2022-10-02T08:21:19.080Z,13.70
2022-10-02T08:23:54.324Z,13.70
2022-10-02T08:26:48.442Z,13.80
2022-10-02T08:29:40.294Z,14.10
2022-10-02T08:32:11.949Z,14.30
2022-10-02T08:34:40.954Z,14.30
2022-10-02T08:37:43.131Z,14.30
2022-10-02T08:40:39.349Z,14.50
2022-10-02T08:43:08.551Z,14.80
2022-10-02T08:46:02.478Z,14.80
2022-10-02T08:48:49.654Z,14.80
2022-10-02T08:51:56.362Z,14.80
2022-10-02T08:54:45.227Z,15.00
2022-10-02T08:57:44.141Z,15.00
2022-10-02T09:00:49.496Z,15.00
2022-10-02T09:03:47.354Z,15.50
2022-10-02T09:06:17.121Z,15.60
2022-10-02T09:09:04.259Z,15.70
2022-10-02T09:11:50.431Z,15.80
2022-10-02T09:14:29.072Z,15.70
2022-10-02T09:17:10.079Z,15.50
2022-10-02T09:19:39.744Z,15.60
2022-10-02T09:22:25.273Z,15.70
2022-10-02T09:25:29.146Z,15.90
2022-10-02T09:28:11.348Z,16.00
2022-10-02T09:30:58.369Z,15.90
2022-10-02T09:33:55.051Z,15.90
2022-10-02T09:37:19.922Z,16.00
2022-10-02T09:40:06.096Z,16.10
2022-10-02T09:42:51.516Z,16.10
2022-10-02T09:45:38.300Z,16.30
2022-10-02T09:48:45.456Z,16.20
2022-10-02T09:51:41.941Z,16.20
2022-10-02T09:54:30.174Z,16.30
2022-10-02T09:57:34.191Z,16.40
2022-10-02T10:00:30.557Z,16.40
2022-10-02T10:03:16.211Z,16.30
2022-10-02T10:05:54.525Z,16.10
2022-10-02T10:08:35.523Z,16.10
2022-10-02T10:11:23.565Z,16.20
2022-10-02T10:14:14.789Z,16.20
2022-10-02T10:16:51.636Z,16.30
2022-10-02T10:19:45.435Z,16.40
2022-10-02T10:22:21.357Z,16.30
2022-10-02T10:25:20.955Z,16.40
2022-10-02T10:28:09.469Z,16.20
2022-10-02T10:30:39.298Z,16.10
2022-10-02T10:33:15.056Z,15.90
2022-10-02T10:36:35.748Z,15.70
2022-10-02T10:39:08.144Z,15.60
2022-10-02T10:42:01.220Z,15.70
2022-10-02T10:44:30.880Z,15.80
2022-10-02T10:47:23.868Z,16.00
2022-10-02T10:50:08.678Z,16.00
2022-10-02T10:52:55.110Z,16.10
2022-10-02T10:56:11.302Z,16.00
2022-10-02T10:58:47.921Z,16.00
2022-10-02T11:01:18.789Z,16.10
2022-10-02T11:04:10.536Z,16.20
2022-10-02T11:07:16.405Z,16.20
2022-10-02T11:10:02.558Z,16.10
2022-10-02T11:12:57.470Z,16.10
2022-10-02T11:15:36.538Z,16.20
2022-10-02T11:18:15.408Z,16.40
2022-10-02T11:21:12.672Z,16.40
2022-10-02T11:24:13.597Z,16.60
2022-10-02T11:27:27.180Z,16.80
2022-10-02T11:30:20.466Z,16.80
2022-10-02T11:32:54.258Z,16.60
2022-10-02T11:35:24.699Z,16.40
2022-10-02T11:38:25.307Z,16.20
2022-10-02T11:41:20.903Z,16.10
2022-10-02T11:44:31.866Z,16.20
2022-10-02T11:47:01.850Z,16.00
2022-10-02T11:49:44.740Z,16.00
2022-10-02T11:52:52.101Z,16.10
2022-10-02T11:55:28.611Z,16.20
2022-10-02T11:58:45.497Z,16.10
2022-10-02T12:01:45.401Z,16.00
2022-10-02T12:05:06.094Z,16.00
2022-10-02T12:07:48.153Z,16.00
2022-10-02T12:10:48.317Z,16.00
2022-10-02T12:13:43.185Z,15.90
2022-10-02T12:16:31.571Z,16.00
2022-10-02T12:19:35.834Z,15.90
2022-10-02T12:22:36.284Z,15.90
2022-10-02T12:26:12.327Z,16.10
2022-10-02T12:28:56.132Z,16.10
2022-10-02T12:31:32.556Z,16.10
2022-10-02T12:35:05.280Z,16.30
2022-10-02T12:38:07.470Z,16.40
2022-10-02T12:41:10.071Z,16.40
2022-10-02T12:44:17.160Z,16.60
2022-10-02T12:47:21.624Z,16.50
2022-10-02T12:50:05.813Z,16.60
2022-10-02T12:53:20.584Z,16.40
2022-10-02T12:56:18.777Z,16.30
2022-10-02T12:59:21.208Z,16.20
2022-10-02T13:02:59.707Z,16.20
2022-10-02T13:06:06.496Z,16.10
2022-10-02T13:09:11.814Z,16.00
2022-10-02T13:12:05.447Z,16.10
2022-10-02T13:14:56.473Z,16.20
2022-10-02T13:17:46.403Z,16.20
2022-10-02T13:20:49.060Z,16.40
2022-10-02T13:23:32.090Z,16.40
2022-10-02T13:26:26.948Z,16.40
2022-10-02T13:29:15.618Z,16.60
2022-10-02T13:32:22.918Z,16.40
2022-10-02T13:35:29.734Z,16.40
2022-10-02T13:38:14.821Z,16.40
2022-10-02T13:41:20.136Z,16.50
2022-10-02T13:44:07.531Z,16.50
2022-10-02T13:46:51.986Z,16.50
2022-10-02T13:49:41.721Z,16.60
2022-10-02T13:52:32.617Z,16.60
2022-10-02T13:55:20.161Z,16.50
2022-10-02T13:58:20.032Z,16.50
2022-10-02T14:01:10.107Z,16.60
2022-10-02T14:04:19.745Z,16.60
2022-10-02T14:06:55.981Z,16.50
2022-10-02T14:09:43.299Z,16.50
2022-10-02T14:12:25.911Z,16.60
2022-10-02T14:15:06.546Z,16.50
2022-10-02T14:18:23.368Z,16.50
2022-10-02T14:21:23.922Z,16.40
2022-10-02T14:24:21.310Z,16.50
2022-10-02T14:27:12.027Z,16.50
2022-10-02T14:29:49.165Z,16.60
2022-10-02T14:32:21.633Z,16.40
2022-10-02T14:35:17.308Z,16.40
2022-10-02T14:38:14.745Z,16.50
2022-10-02T14:40:57.621Z,16.50
2022-10-02T14:43:53.633Z,16.60
2022-10-02T14:46:36.072Z,16.50
2022-10-02T14:49:39.463Z,16.50
2022-10-02T14:52:27.574Z,16.40
2022-10-02T14:55:41.665Z,16.50
2022-10-02T14:58:23.841Z,16.60
2022-10-02T15:01:26.554Z,16.50
2022-10-02T15:04:41.509Z,16.70
2022-10-02T15:07:14.088Z,16.80
2022-10-02T15:09:56.115Z,16.60
2022-10-02T15:12:30.335Z,16.80
2022-10-02T15:15:20.879Z,16.80
2022-10-02T15:18:31.237Z,16.70
2022-10-02T15:21:26.240Z,16.60
2022-10-02T15:23:57.534Z,16.60
2022-10-02T15:26:50.069Z,16.50
2022-10-02T15:29:16.920Z,16.70
2022-10-02T15:32:07.259Z,16.70
2022-10-02T15:34:40.657Z,16.40
2022-10-02T15:37:21.893Z,16.30
2022-10-02T15:39:59.336Z,16.20
2022-10-02T15:42:56.146Z,16.10
2022-10-02T15:46:08.178Z,16.10
2022-10-02T15:48:58.921Z,16.00
2022-10-02T15:52:08.739Z,16.00
2022-10-02T15:55:19.637Z,16.00
2022-10-02T15:58:16.161Z,15.90
2022-10-02T16:01:00.963Z,15.80
2022-10-02T16:03:44.819Z,15.70
2022-10-02T16:07:09.307Z,15.70
2022-10-02T16:10:16.536Z,15.60
2022-10-02T16:13:12.451Z,15.60
2022-10-02T16:16:05.255Z,15.50
2022-10-02T16:19:01.265Z,15.60
2022-10-02T16:22:20.912Z,15.50
2022-10-02T16:25:20.851Z,15.40
2022-10-02T16:28:25.982Z,15.40
2022-10-02T16:30:52.813Z,15.40
2022-10-02T16:34:21.521Z,15.30
2022-10-02T16:37:01.442Z,15.30
2022-10-02T16:39:43.721Z,15.30
2022-10-02T16:42:43.889Z,15.20
2022-10-02T16:45:34.787Z,15.10
2022-10-02T16:48:17.145Z,15.10
2022-10-02T16:51:05.266Z,15.10
2022-10-02T16:53:47.982Z,15.00
2022-10-02T16:56:24.512Z,15.00
2022-10-02T16:59:08.549Z,14.90
2022-10-02T17:02:16.835Z,14.90
2022-10-02T17:05:25.498Z,14.90
2022-10-02T17:08:07.793Z,14.80
2022-10-02T17:11:14.404Z,14.80
2022-10-02T17:14:10.856Z,14.70
2022-10-02T17:16:52.598Z,14.50
2022-10-02T17:19:52.495Z,14.50
2022-10-02T17:22:39.359Z,14.50
2022-10-02T17:25:29.963Z,14.50
2022-10-02T17:28:18.315Z,14.40
2022-10-02T17:31:09.304Z,14.50
2022-10-02T17:33:57.136Z,14.50
2022-10-02T17:36:36.650Z,14.40
2022-10-02T17:39:09.430Z,14.40
2022-10-02T17:42:08.086Z,14.40
2022-10-02T17:45:15.032Z,14.40
2022-10-02T17:48:07.021Z,14.30
2022-10-02T17:51:18.593Z,14.30
2022-10-02T17:54:25.781Z,14.30
2022-10-02T17:57:06.356Z,14.20
2022-10-02T17:59:40.745Z,14.20
2022-10-02T18:02:46.444Z,14.20
2022-10-02T18:06:07.584Z,14.20
2022-10-02T18:09:15.208Z,14.20
2022-10-02T18:12:18.643Z,14.10
2022-10-02T18:15:22.026Z,14.20
2022-10-02T18:18:18.981Z,14.10
2022-10-02T18:21:08.077Z,14.10
2022-10-02T18:24:18.509Z,14.10
2022-10-02T18:27:23.049Z,14.20
2022-10-02T18:30:22.273Z,14.20
2022-10-02T18:33:14.544Z,14.20
2022-10-02T18:36:12.945Z,14.10
2022-10-02T18:39:23.367Z,14.20
2022-10-02T18:42:40.039Z,14.10
2022-10-02T18:45:29.732Z,14.10
2022-10-02T18:48:27.193Z,14.00
2022-10-02T18:51:05.142Z,14.00
2022-10-02T18:53:50.825Z,14.00
2022-10-02T18:56:22.955Z,14.00
2022-10-02T18:58:58.880Z,14.00
2022-10-02T19:01:38.762Z,14.00
2022-10-02T19:04:19.591Z,13.80
2022-10-02T19:07:19.304Z,13.80
2022-10-02T19:09:46.871Z,13.70
2022-10-02T19:12:16.169Z,13.70
2022-10-02T19:14:47.485Z,13.80
2022-10-02T19:17:23.576Z,13.80
2022-10-02T19:19:50.456Z,13.80
2022-10-02T19:22:23.766Z,13.80
2022-10-02T19:25:03.716Z,13.90
2022-10-02T19:27:35.007Z,13.80
2022-10-02T19:30:23.483Z,13.90
2022-10-02T19:32:50.915Z,13.80
2022-10-02T19:35:23.061Z,13.80
2022-10-02T19:37:51.364Z,13.80
2022-10-02T19:40:21.957Z,13.80
2022-10-02T19:42:54.742Z,13.80
2022-10-02T19:45:29.101Z,13.80
2022-10-02T19:48:09.735Z,13.70
2022-10-02T19:50:46.545Z,13.80
2022-10-02T19:53:33.370Z,13.80
2022-10-02T19:56:13.049Z,13.80
2022-10-02T19:58:44.528Z,13.70
2022-10-02T20:01:25.908Z,13.70
2022-10-02T20:03:58.285Z,13.60
2022-10-02T20:06:27.221Z,13.60
2022-10-02T20:08:58.229Z,13.60
2022-10-02T20:11:39.231Z,13.70
2022-10-02T20:14:08.537Z,13.70
2022-10-02T20:16:53.990Z,13.60
2022-10-02T20:19:31.921Z,13.60
2022-10-02T20:21:59.911Z,13.60
2022-10-02T20:24:31.158Z,13.50
2022-10-02T20:27:07.026Z,13.50
2022-10-02T20:29:37.145Z,13.50
2022-10-02T20:32:26.242Z,13.50
2022-10-02T20:35:03.783Z,13.50
2022-10-02T20:37:31.753Z,13.50
2022-10-02T20:40:08.797Z,13.50
2022-10-02T20:42:40.570Z,13.50
2022-10-02T20:45:12.324Z,13.50
2022-10-02T20:47:53.850Z,13.50
2022-10-02T20:50:25.546Z,13.40
2022-10-02T20:53:13.721Z,13.40
2022-10-02T20:56:18.155Z,13.40
2022-10-02T20:58:53.857Z,13.30
2022-10-02T21:01:22.131Z,13.30
2022-10-02T21:06:55.743Z,13.20
2022-10-02T21:09:34.581Z,13.20
2022-10-02T21:12:25.721Z,13.20
2022-10-02T21:15:11.319Z,13.10
2022-10-02T21:17:57.708Z,13.00
2022-10-02T21:20:51.555Z,12.90
2022-10-02T21:23:56.325Z,12.90
2022-10-02T21:26:33.036Z,12.90
2022-10-02T21:29:17.100Z,12.80
2022-10-02T21:32:02.669Z,12.90
2022-10-02T21:34:43.487Z,12.90
2022-10-02T21:37:33.983Z,12.90
2022-10-02T21:40:19.669Z,12.90
2022-10-02T21:43:11.704Z,12.80
2022-10-02T21:46:12.669Z,12.80
2022-10-02T21:48:54.357Z,12.80
2022-10-02T21:51:44.600Z,12.70
2022-10-02T21:54:29.951Z,12.70
2022-10-02T21:57:11.977Z,12.80
2022-10-02T21:59:58.983Z,12.70
2022-10-02T22:02:37.300Z,12.60
2022-10-02T22:05:29.439Z,12.60
2022-10-02T22:08:06.783Z,12.50
2022-10-02T22:10:42.129Z,12.50
2022-10-02T22:13:18.280Z,12.40
2022-10-02T22:16:14.255Z,12.40
2022-10-02T22:18:53.600Z,12.50
2022-10-02T22:21:52.687Z,12.50
2022-10-02T22:24:34.216Z,12.50
2022-10-02T22:27:24.802Z,12.60
2022-10-02T22:29:55.639Z,12.60
2022-10-02T22:32:48.780Z,12.50
2022-10-02T22:35:27.736Z,12.50
2022-10-02T22:38:26.020Z,12.40
2022-10-02T22:40:55.114Z,12.40
2022-10-02T22:43:32.018Z,12.30
2022-10-02T22:46:07.867Z,12.40
2022-10-02T22:48:46.579Z,12.30
2022-10-02T22:51:22.360Z,12.40
2022-10-02T22:54:02.918Z,12.40
2022-10-02T22:56:35.546Z,12.20
2022-10-02T22:59:08.621Z,12.20
2022-10-02T23:01:49.157Z,12.20
2022-10-02T23:04:36.463Z,12.20
2022-10-02T23:07:16.408Z,12.20
2022-10-02T23:09:59.540Z,12.10
2022-10-02T23:13:12.892Z,12.20
2022-10-02T23:16:02.005Z,12.20
2022-10-02T23:18:56.872Z,12.10
2022-10-02T23:21:26.410Z,12.00
2022-10-02T23:24:06.139Z,12.00
2022-10-02T23:26:39.631Z,12.00
2022-10-02T23:29:31.087Z,11.90
2022-10-02T23:32:19.048Z,11.90
2022-10-02T23:34:59.856Z,11.80
2022-10-02T23:37:54.127Z,11.70
2022-10-02T23:41:08.661Z,11.70
2022-10-02T23:43:38.660Z,11.70
2022-10-02T23:46:15.036Z,11.70
2022-10-02T23:48:41.980Z,11.70
2022-10-02T23:51:18.677Z,11.70
2022-10-02T23:54:14.727Z,11.70
2022-10-02T23:57:06.232Z,11.60
2022-10-02T23:59:52.268Z,11.60
